Caliente, Nevada Weather observations

Data are for observation ending at time listed.
 Day   Time    Ave.   Ave.  Ave.  Vector   Max.   Stn.    Total    Solar   Ave.  
  of    of     Air    Rel.  Wind   Wind    Wind   Baro.  Precip.   Rad.    Soil  
Year   Day     Temp.  Hum.  Speed  Dir.    Gust   Pres.                    Temp. 
2016   (PST)    F      %     mph   deg.    mph     mb.     in.     W/m2     F   
------------------------------------------------------------------------------
  41   19:40   35.8    72    0.7    78      2.7   876.1    0.00       0    32.3
  41   19:50   35.9    73    1.7   100      3.0   876.3    0.00       0    32.3
  41   20:00   35.5    72    0.9    87      3.1   876.4    0.00       0    32.3
  41   20:10   35.3    74    2.3    51      3.9   876.4    0.00       0    32.3
  41   20:20   34.9    75    1.3   101      3.1   876.4    0.00       0    32.3
  41   20:30   34.6    75    0.5   140      2.1   876.6    0.00       0    32.3
  41   20:40   34.5    76    1.2   328      5.2   876.7    0.00       0    32.3
  41   20:50   34.0    77    1.6    41      3.1   876.8    0.00       0    32.3
  41   21:00   33.5    78    0.9    80      2.3   876.9    0.00       0    32.3
  41   21:10   33.0    79    1.5   106      2.6   876.9    0.00       0    32.3
  41   21:20   32.7    78    0.7    98      2.5   877.1    0.00       0    32.3
  41   21:30   32.3    79    0.3    64      2.1   877.2    0.00       0    32.3
  41   21:40   31.8    80    0.2   157      1.5   877.3    0.00       0    32.3
  41   21:50   31.7    81    0.4   251      3.9   877.4    0.00       0    32.3
  41   22:00   31.7    81    1.1   123      2.0   877.5    0.00       0    32.3
  41   22:10   31.3    81    0.4   107      1.3   877.6    0.00       0    32.3
  41   22:20   30.9    82    0.7    76      2.4   877.6    0.00       0    32.3
  41   22:30   30.6    84    0.5    62      2.1   877.6    0.00       0    32.3
  41   22:40   30.2    84    0.6    42      1.7   877.6    0.00       0    32.3
  41   22:50   29.8    85    1.5   125      3.0   877.7    0.00       0    32.4
  41   23:00   30.2    84    1.4    44      2.6   877.7    0.00       0    32.4
  41   23:10   29.6    84    1.3    74      4.0   877.7    0.00       0    32.3
  41   23:20   29.3    85    0.7    47      2.3   877.7    0.00       0    32.4
  41   23:30   29.0    85    0.9   122      2.2   877.6    0.00       0    32.3
  41   23:40   29.2    85    0.5   103      2.9   877.6    0.00       0    32.4
  41   23:50   29.2    84    0.5   103      1.8   877.6    0.00       0    32.4
  42    0:00   29.2    84    1.1   102      2.2   877.6    0.00       0    32.3
  42    0:10   28.9    84    0.6   100      1.8   877.6    0.00       0    32.4
  42    0:20   29.4    83    0.8    96      1.9   877.6    0.00       0    32.3
  42    0:30   29.2    83    0.4    64      1.7   877.6    0.00       0    32.3
  42    0:40   28.9    84    0.4    85      1.8   877.5    0.00       0    32.3
  42    0:50   28.4    84    0.4   134      1.7   877.4    0.00       0    32.3
  42    1:00   27.8    85    0.4   212      2.8   877.4    0.00       0    32.3
  42    1:10   27.9    86    0.4    25      2.3   877.4    0.00       0    32.3
  42    1:20   27.4    85    0.4    78      1.6   877.4    0.00       0    32.3
  42    1:30   27.3    86    0.4   141      1.7   877.4    0.00       0    32.3
  42    1:40   27.3    86    1.1   134      1.8   877.3    0.00       0    32.3
  42    1:50   27.0    86    0.3   109      1.6   877.3    0.00       0    32.3
  42    2:00   26.7    87    0.5    94      1.5   877.3    0.00       0    32.3
  42    2:10   26.7    87    0.9    69      2.5   877.2    0.00       0    32.3
  42    2:20   26.4    87    1.1    62      2.9   877.3    0.00       0    32.3
  42    2:30   26.5    88    0.9    91      2.6   877.3    0.00       0    32.3
  42    2:40   26.5    87    0.5   102      1.9   877.3    0.00       0    32.4
  42    2:50   26.3    87    0.7   107      2.0   877.3    0.00       0    32.4
  42    3:00   26.1    87    0.3     5      1.4   877.2    0.00       0    32.3
  42    3:10   25.7    88    0.7   123      1.6   877.1    0.00       0    32.3
  42    3:20   25.6    87    1.1   124      1.7   877.2    0.00       0    32.3
  42    3:30   25.2    88    0.1   104      0.9   877.2    0.00       0    32.3
  42    3:40   25.2    88    0.6    56      1.9   877.2    0.00       1    32.3
  42    3:50   25.3    88    1.1   104      2.9   877.2    0.00       1    32.3
  42    4:00   25.2    88    0.1   101      1.3   877.2    0.00       0    32.4
  42    4:10   24.9    88    0.8    88      2.3   877.3    0.00       1    32.3
  42    4:20   25.1    88    0.9   265      7.5   877.2    0.00       0    32.3
  42    4:30   25.0    88    0.3   108      1.1   877.3    0.00       0    32.3
  42    4:40   25.0    88    0.6   130      1.5   877.3    0.00       0    32.3
  42    4:50   24.9    88    0.3    68      1.1   877.4    0.00       0    32.3
  42    5:00   24.5    88    1.1    37      1.8   877.4    0.00       0    32.3
  42    5:10   24.1    88    0.3   100      1.5   877.5    0.00       0    32.3
  42    5:20   24.0    89    0.6   103      1.5   877.6    0.00       0    32.3
  42    5:30   24.1    89    0.9   126      2.0   877.6    0.00       0    32.3
  42    5:40   24.0    89    0.9    78      2.3   877.7    0.00       0    32.3
  42    5:50   24.0    88    0.7    40      2.0   877.8    0.00       1    32.3
  42    6:00   23.6    88    0.7    74      2.0   877.9    0.00       0    32.3
  42    6:10   23.5    89    1.4    74      3.1   878.0    0.00       1    32.3
  42    6:20   23.5    89    1.1   129      2.2   878.1    0.00       1    32.3
  42    6:30   23.5    89    0.5    55      2.6   878.1    0.00       3    32.2
  42    6:40   23.5    89    0.6    74      2.0   878.2    0.00       4    32.3
  42    6:50   23.4    88    0.6    74      2.6   878.4    0.00       8    32.2
  42    7:00   23.3    88    0.6    75      1.8   878.4    0.00      12    32.2
  42    7:10   23.4    88    1.2    40      3.7   878.4    0.00      16    32.2
  42    7:20   23.6    88    1.0   103      2.3   878.4    0.00      18    32.2
  42    7:30   23.9    88    0.4    84      1.4   878.5    0.00      21    32.1
  42    7:40   24.7    86    1.3   106      2.3   878.6    0.00      76    32.1
  42    7:50   26.0    83    1.2    91      2.8   878.6    0.00     148    32.0
  42    8:00   28.1    79    1.2    26      3.1   878.6    0.00     176    31.9
  42    8:10   28.7    76    0.5   232      1.6   878.6    0.00     200    31.9
  42    8:20   29.3    76    0.6   123      2.8   878.5    0.00     216    31.8
  42    8:30   30.6    73    1.5   105      3.4   878.6    0.00     237    31.8
  42    8:40   32.4    69    0.7   120      1.8   878.5    0.00     270    31.7
  42    8:50   33.6    67    1.3   108      2.7   878.5    0.00     286    31.7
  42    9:00   34.1    66    1.2    92      3.0   878.5    0.00     298    31.7
  42    9:10   34.7    63    2.5    53      4.8   878.4    0.00     323    31.6
  42    9:20   35.0    62    1.7    81      3.2   878.3    0.00     351    31.6
  42    9:30   35.9    59    4.0    26      8.0   878.3    0.00     365    31.6
  42    9:40   36.4    58    3.8    18      7.1   878.3    0.00     388    31.6
  42    9:50   37.1    58    4.9    10      8.3   878.2    0.00     407    31.7
  42   10:00   37.8    55    4.7    20      7.7   878.1    0.00     423    31.7
  42   10:10   38.3    55    4.9    27      9.1   878.0    0.00     438    31.7
  42   10:20   39.4    54    4.9    27      8.6   878.0    0.00     454    31.8
  42   10:30   40.4    52    4.2    14      7.7   877.9    0.00     468    31.8
  42   10:40   41.6    48    4.3     2      9.1   877.8    0.00     478    31.8
  42   10:50   43.2    46    3.5     6      6.4   877.7    0.00     488    31.8
  42   11:00   44.1    45    2.2   358      6.1   877.5    0.00     496    31.8
  42   11:10   44.8    43    3.8    18      6.6   877.3    0.00     504    31.9
  42   11:20   45.9    41    3.0    12      5.1   877.2    0.00     501    31.9
  42   11:30   47.2    40    2.1   351      4.8   877.0    0.00     504    31.9
  42   11:40   48.0    38    1.8    28      4.2   876.8    0.00     510    31.9
  42   11:50   48.9    37    2.7   355      5.5   876.6    0.00     520    31.9
  42   12:00   49.4    38    4.0   358      7.5   876.3    0.00     524    32.0
  42   12:10   49.8    38    4.4   358      7.7   876.1    0.00     524    32.0
  42   12:20   50.2    38    4.8    10      8.1   875.8    0.00     522    32.0
  42   12:30   50.6    38    5.3     8      8.7   875.6    0.00     520    32.0
  42   12:40   51.0    38    4.9     1     10.4   875.4    0.00     515    32.0
  42   12:50   51.0    39    6.0   358     10.2   875.3    0.00     511    32.1
  42   13:00   51.4    38    6.3    13     11.2   875.2    0.00     507    32.1
  42   13:10   52.0    37    5.6    10      9.6   875.0    0.00     495    32.1
  42   13:20   52.6    36    5.5   355      9.9   874.9    0.00     475    32.1
  42   13:30   52.8    37    5.5   355     10.4   874.8    0.00     454    32.1
  42   13:40   53.1    37    5.6    12      9.0   874.7    0.00     423    32.2
  42   13:50   53.4    38    5.6     1      9.7   874.6    0.00     425    32.2
  42   14:00   53.4    39    4.5    21      8.1   874.5    0.00     194    32.2
  42   14:10   53.6    39    5.4    22      8.3   874.4    0.00      54    32.2
  42   14:20   54.2    38    3.7    10      6.8   874.3    0.00      55    32.3
  42   14:30   54.8    38    4.5     0      6.9   874.3    0.00      64    32.3
  42   14:40   55.0    37    5.0     4      7.5   874.3    0.00      79    32.3
  42   14:50   55.3    36    4.2    11      8.0   874.3    0.00      90    32.3
  42   15:00   55.8    34    4.4     9      7.8   874.4    0.00     107    32.3
  42   15:10   56.3    33    3.8    13      6.6   874.4    0.00     239    32.3
  42   15:20   56.2    33    4.0     8      8.0   874.4    0.00     218    32.3
  42   15:30   56.4    33    3.8    13      6.5   874.3    0.00     204    32.3
  42   15:40   56.5    33    3.3    15      7.1   874.3    0.00     199    32.2
  42   15:50   56.9    31    3.5     4      7.2   874.3    0.00     192    32.3
  42   16:00   57.0    31    3.2   353      6.6   874.4    0.00     135    32.3
  42   16:10   56.9    32    3.1     2      5.9   874.4    0.00     142    32.3
  42   16:20   56.2    33    3.4   352      5.5   874.5    0.00      78    32.3
  42   16:30   55.4    34    2.5    16      5.5   874.5    0.00      95    32.3
  42   16:40   55.2    34    1.2    66      3.7   874.5    0.00      72    32.3
  42   16:50   54.0    35    1.8    90      4.4   874.5    0.00      39    32.3
  42   17:00   52.9    37    0.3    69      2.0   874.6    0.00      29    32.3
  42   17:10   51.4    42    0.7    66      2.3   874.7    0.00      12    32.3
  42   17:20   48.3    46    1.3    96      3.7   874.8    0.00       5    32.3
  42   17:30   47.0    48    0.1    93      2.6   874.8    0.00       2    32.3
  42   17:40   45.7    50    0.5   100      2.3   874.9    0.00       0    32.3
  42   17:50   44.6    54    0.4   112      1.3   875.0    0.00       0    32.4
  42   18:00   43.7    56    0.2    73      1.2   875.2    0.00       0    32.3
  42   18:10   43.4    57    0.4   103      1.4   875.3    0.00       0    32.4
  42   18:20   42.5    59    0.3    43      1.4   875.5    0.00       0    32.4
  42   18:30   42.0    60    0.4    89      1.6   875.6    0.00       0    32.4
  42   18:40   41.6    61    0.8   112      1.6   875.6    0.00       0    32.4
  42   18:50   41.0    62    0.2    95      1.2   875.6    0.00       0    32.3
  42   19:00   40.4    63    0.2    67      1.7   875.7    0.00       0    32.4
  42   19:10   39.7    65    0.7    57      2.3   875.8    0.00       0    32.4
  42   19:20   39.8    66    0.7    63      3.0   875.8    0.00       0    32.4
  42   19:30   39.4    66    0.4    70      1.5   875.9    0.00       0    32.4

Return to Caliente, Nevada graphs page.


Western Regional Climate Center,wrcc@dri.edu